Hauptseite
METAR-TAF:

METAR-TAF

Flughäfen :

Mahschahr, Iran

Breite: 30-33-23N, Länge: 049-09-07E, Höhe: 2 m

Beobachtung

Neuester Wetterbericht von vor 1 Stunde und 4 Minuten, um 21:00 UTC
Wind 10 kt aus Ost/Südost
Temperatur 19°C
Luftfeuchtigkeit 88%
Luftdruck 1014 hPa
Sichtweite: 6000 m

METAR: OIAM 012100Z 11010KT 6000 NSC 19/17 Q1014

Zeit: 01:34 (22:04 UTC)


TAF: fehlend

Wetterbeobachtungen und Prognosen von mehr als 4000 Flughäfen (METAR und TAF Bericht).

Die verfügbaren Stationen werden durch gelbe und rote Markierungen auf der Karte dargestellt.

Führen Sie die Maus auf sie, um den Namen der Station zu sehen.

Darauf klicken, um die Beobachtung von Wetterbeobachtungen und Prognosen zu sehen.

Um die Karte zu ändern : klicken Sie auf den grünen Tasten mit einem schwarzen Kreuz Zum Vergrößern, auf den grünen Button mit einem Gedankenstrich zu verkleinern, oder auf die grünen Pfeile für benachbarte Karten.


METAR-TAF: